Sueca, Spain
Current Conditions -  °F | °C
As of 6:30 PM on Sunday 23 Nov 2014 (Local Time) from LEVC Reporting Station
Few Clouds Few Clouds  
Wind Chill: 66°   Ceiling: Unl
Heat Index: 66°   Visibility: 6mi
Dew Point: 63°   Wind: 6mph
Humidity: 88%   Direction: 40°NE
Pressure: 29.97"   Gusts: NA
Location:  39.2°N, 0.31°W
Report Text: LEVC 231730Z 04005KT 010V080 9999 FEW025 19/17 Q1015 NOSIG
Loading
Personal Weather Stations






























Interactive Weather Map New forecast layout! Learn more

10-Day Weather Forecast

Advertisements
Track Severe Weather on mobile